Decoded Metar for PADM (MARSHALL in AK, USA) (IATA:N/A) | Meteo·Mobile Aviation Weather
aviador You're here:

PADM Decoded Metar

MARSHALL in AK, USA
Report Time2019-09-17 00:23:00
UTC Time2019-09-17 01:02:25
Flight Rules vfr VFR
Wind300° at 11 kt
W.Decomp.*RWY 25: 8.8 kt HW 6.6 kt RCW
Visibility9999 m
Phenomena:N/A
Clouds:Scattered 028 Hf
Expected CloudBase > 2,800 ft AGL from Temp-Dew spread
CeilingNone
Temp14°C (ISA -1)
Dew Point07°C (63% RH)
AAT9.4°C
QNH1011 hPa
Density Alt213 ft
Elevation102 ft
Report Wrong Elevation
Raw Report
PADM 170023Z AUTO 30011KT 10SM SCT028 14/07 A2986 RMK AO2=

Extra information for PADM:More info

Metar Taf Metar & Taf Last 4 Metars F.Rules Stats Wind Profile Meteogram Temp Stats Airport Information Weather charts Add Link Nearby VenuesMetar ALERT Operation Metar Decoded Social comments

AIRNAV info for PADM